createdAt,value
2017-10-07T00:00:11.047Z,0
2017-10-07T00:01:13.468Z,0
2017-10-07T00:02:15.900Z,0
2017-10-07T00:03:18.323Z,0
2017-10-07T00:04:20.756Z,0
2017-10-07T00:05:23.179Z,0
2017-10-07T00:06:25.611Z,0
2017-10-07T00:07:28.040Z,0
2017-10-07T00:08:30.811Z,0
2017-10-07T00:09:33.228Z,0
2017-10-07T00:10:35.681Z,0
2017-10-07T00:11:38.110Z,0
2017-10-07T00:12:40.545Z,0
2017-10-07T00:13:42.968Z,0
2017-10-07T00:14:45.402Z,0
2017-10-07T00:15:47.822Z,0
2017-10-07T00:16:50.250Z,0
2017-10-07T00:17:52.680Z,0
2017-10-07T00:18:55.099Z,0
2017-10-07T00:19:57.871Z,0
2017-10-07T00:21:00.292Z,0
2017-10-07T00:22:03.065Z,0
2017-10-07T00:23:05.499Z,0
2017-10-07T00:24:07.913Z,0
2017-10-07T00:25:10.346Z,0
2017-10-07T00:26:12.776Z,0
2017-10-07T00:27:15.204Z,0
2017-10-07T00:28:17.627Z,0
2017-10-07T00:29:20.062Z,0
2017-10-07T00:30:22.481Z,0
2017-10-07T00:31:24.925Z,0
2017-10-07T00:32:27.349Z,0
2017-10-07T00:33:29.766Z,0
2017-10-07T00:34:32.541Z,0
2017-10-07T00:35:34.965Z,0
2017-10-07T00:36:37.399Z,0
2017-10-07T00:37:39.826Z,0
2017-10-07T00:38:42.253Z,0
2017-10-07T00:39:44.688Z,0
2017-10-07T00:40:47.114Z,0
2017-10-07T00:41:49.548Z,0
2017-10-07T00:42:51.975Z,0
2017-10-07T00:43:54.396Z,0
2017-10-07T00:44:56.825Z,0
2017-10-07T00:45:59.258Z,0
2017-10-07T00:47:01.682Z,0
2017-10-07T00:48:04.106Z,0
2017-10-07T00:49:06.545Z,0
2017-10-07T00:50:08.962Z,0
2017-10-07T00:51:11.395Z,0
2017-10-07T00:52:13.829Z,0
2017-10-07T00:53:16.257Z,0
2017-10-07T00:54:18.692Z,0
2017-10-07T00:55:21.116Z,0
2017-10-07T00:56:23.549Z,0
2017-10-07T00:57:25.978Z,0
2017-10-07T00:58:28.403Z,0
2017-10-07T00:59:30.833Z,0
2017-10-07T01:00:33.262Z,0
2017-10-07T01:01:35.683Z,0
2017-10-07T01:02:38.115Z,0
2017-10-07T01:03:40.536Z,0
2017-10-07T01:04:42.968Z,0
2017-10-07T01:05:45.389Z,0
2017-10-07T01:06:47.822Z,0
2017-10-07T01:07:50.597Z,0
2017-10-07T01:08:53.016Z,0
2017-10-07T01:09:55.441Z,0
2017-10-07T01:10:57.871Z,0
2017-10-07T01:12:00.298Z,0
2017-10-07T01:13:02.731Z,0
2017-10-07T01:14:05.158Z,0
2017-10-07T01:15:07.589Z,0
2017-10-07T01:16:10.033Z,0
2017-10-07T01:17:12.453Z,0
2017-10-07T01:18:14.892Z,0
2017-10-07T01:19:17.313Z,0
2017-10-07T01:20:19.744Z,0
2017-10-07T01:21:22.187Z,0
2017-10-07T01:22:24.965Z,0
2017-10-07T01:23:27.381Z,0
2017-10-07T01:24:29.816Z,0
2017-10-07T01:25:32.240Z,0
2017-10-07T01:26:34.666Z,0
2017-10-07T01:27:37.095Z,0
2017-10-07T01:28:39.511Z,0
2017-10-07T01:29:41.941Z,0
2017-10-07T01:30:44.379Z,0
2017-10-07T01:31:46.798Z,0
2017-10-07T01:32:49.240Z,0
2017-10-07T01:33:51.669Z,0
2017-10-07T01:34:54.102Z,0
2017-10-07T01:35:56.528Z,0
2017-10-07T01:36:58.966Z,0
2017-10-07T01:38:01.388Z,0
2017-10-07T01:39:03.839Z,0
2017-10-07T01:40:06.262Z,0
2017-10-07T01:41:09.036Z,0
2017-10-07T01:42:11.822Z,0
2017-10-07T01:43:14.250Z,0
2017-10-07T01:44:16.672Z,0
2017-10-07T01:45:19.105Z,0
2017-10-07T01:46:21.529Z,0
2017-10-07T01:47:23.959Z,0
2017-10-07T01:48:26.390Z,0
2017-10-07T01:49:28.802Z,0
2017-10-07T01:50:31.234Z,0
2017-10-07T01:51:33.661Z,0
2017-10-07T01:52:36.085Z,0
2017-10-07T01:53:38.522Z,0
2017-10-07T01:54:40.933Z,0
2017-10-07T01:55:43.365Z,0
2017-10-07T01:56:46.169Z,0
2017-10-07T01:57:48.589Z,0
2017-10-07T01:58:51.019Z,0
2017-10-07T01:59:53.446Z,0
2017-10-07T02:00:55.873Z,0
2017-10-07T02:01:58.313Z,0
2017-10-07T02:03:00.741Z,0
2017-10-07T02:04:03.158Z,0
2017-10-07T02:05:05.601Z,0
2017-10-07T02:06:08.023Z,0
2017-10-07T02:07:10.453Z,0
2017-10-07T02:08:12.873Z,0
2017-10-07T02:09:15.308Z,0
2017-10-07T02:10:17.737Z,0
2017-10-07T02:11:20.164Z,0
2017-10-07T02:12:22.596Z,0
2017-10-07T02:13:25.020Z,0
2017-10-07T02:14:27.450Z,0
2017-10-07T02:15:29.890Z,0
2017-10-07T02:16:32.657Z,0
2017-10-07T02:17:35.083Z,0
2017-10-07T02:18:37.506Z,0
2017-10-07T02:19:39.936Z,0
2017-10-07T02:20:42.361Z,0
2017-10-07T02:21:44.790Z,0
2017-10-07T02:22:47.208Z,0
2017-10-07T02:23:49.636Z,0
2017-10-07T02:24:52.064Z,0
2017-10-07T02:25:54.491Z,0
2017-10-07T02:26:56.915Z,0
2017-10-07T02:27:59.352Z,0
2017-10-07T02:29:01.775Z,0
2017-10-07T02:30:04.214Z,0
2017-10-07T02:31:06.647Z,0
2017-10-07T02:32:09.070Z,0
2017-10-07T02:33:11.500Z,0
2017-10-07T02:34:13.937Z,0
2017-10-07T02:35:16.364Z,0
2017-10-07T02:36:19.140Z,0
2017-10-07T02:37:21.566Z,0
2017-10-07T02:38:24.348Z,0
2017-10-07T02:39:26.780Z,0
2017-10-07T02:40:29.214Z,0
2017-10-07T02:41:31.981Z,0
2017-10-07T02:42:34.402Z,0
2017-10-07T02:43:36.832Z,0
2017-10-07T02:44:39.258Z,0
2017-10-07T02:45:41.679Z,0
2017-10-07T02:46:44.112Z,0
2017-10-07T02:47:46.530Z,0
2017-10-07T02:48:48.970Z,0
2017-10-07T02:49:51.392Z,0
2017-10-07T02:50:54.175Z,0
2017-10-07T02:51:56.932Z,0
2017-10-07T02:52:59.366Z,0
2017-10-07T02:54:01.795Z,0
2017-10-07T02:55:04.232Z,0
2017-10-07T02:56:06.658Z,0
2017-10-07T02:57:09.431Z,0
2017-10-07T02:58:11.863Z,0
2017-10-07T02:59:14.292Z,0
2017-10-07T03:00:16.721Z,0
2017-10-07T03:01:19.145Z,0
2017-10-07T03:02:21.567Z,0
2017-10-07T03:03:24.004Z,0
2017-10-07T03:04:26.438Z,0
2017-10-07T03:05:28.858Z,0
2017-10-07T03:06:31.293Z,0
2017-10-07T03:07:33.722Z,0
2017-10-07T03:08:36.158Z,0
2017-10-07T03:09:38.579Z,0
2017-10-07T03:10:41.008Z,0
2017-10-07T03:11:43.432Z,0
2017-10-07T03:12:45.869Z,0
2017-10-07T03:13:48.292Z,0
2017-10-07T03:14:50.716Z,0
2017-10-07T03:15:53.151Z,0
2017-10-07T03:16:55.579Z,0
2017-10-07T03:17:58.013Z,0
2017-10-07T03:19:00.447Z,0
2017-10-07T03:20:02.864Z,0
2017-10-07T03:21:05.634Z,0
2017-10-07T03:22:08.067Z,0
2017-10-07T03:23:10.831Z,0
2017-10-07T03:24:13.263Z,0
2017-10-07T03:25:15.699Z,0
2017-10-07T03:26:18.122Z,0
2017-10-07T03:27:20.568Z,0
2017-10-07T03:28:22.989Z,0
2017-10-07T03:29:25.414Z,0
2017-10-07T03:30:28.201Z,0
2017-10-07T03:31:30.618Z,0
2017-10-07T03:32:33.419Z,0
2017-10-07T03:33:35.847Z,0
2017-10-07T03:34:38.280Z,0
2017-10-07T03:35:40.707Z,0
2017-10-07T03:36:43.124Z,0
2017-10-07T03:37:45.554Z,0
2017-10-07T03:38:47.991Z,0
2017-10-07T03:39:50.415Z,0
2017-10-07T03:40:52.848Z,0
2017-10-07T03:41:55.271Z,0
2017-10-07T03:42:57.701Z,0
2017-10-07T03:44:00.140Z,0
2017-10-07T03:45:02.572Z,0
2017-10-07T03:46:04.989Z,0
2017-10-07T03:47:07.422Z,0
2017-10-07T03:48:09.853Z,0
2017-10-07T03:49:12.288Z,0
2017-10-07T03:50:14.717Z,0
2017-10-07T03:51:17.477Z,0
2017-10-07T03:52:19.908Z,0
2017-10-07T03:53:22.695Z,0
2017-10-07T03:54:25.130Z,0
2017-10-07T03:55:27.546Z,0
2017-10-07T03:56:30.315Z,0
2017-10-07T03:57:32.738Z,0
2017-10-07T03:58:35.177Z,0
2017-10-07T03:59:37.598Z,0
2017-10-07T04:00:40.007Z,0
2017-10-07T04:01:42.439Z,0
2017-10-07T04:02:44.873Z,0
2017-10-07T04:03:47.309Z,0
2017-10-07T04:04:49.739Z,0
2017-10-07T04:05:52.165Z,0
2017-10-07T04:06:54.599Z,0
2017-10-07T04:07:57.030Z,0
2017-10-07T04:08:59.451Z,0
2017-10-07T04:10:01.894Z,0
2017-10-07T04:11:04.306Z,0
2017-10-07T04:12:06.743Z,0
2017-10-07T04:13:09.510Z,0
2017-10-07T04:14:11.936Z,0
2017-10-07T04:15:14.363Z,0
2017-10-07T04:16:16.796Z,0
2017-10-07T04:17:19.213Z,0
2017-10-07T04:18:21.644Z,0
2017-10-07T04:19:24.075Z,0
2017-10-07T04:20:26.848Z,0
2017-10-07T04:21:29.283Z,0
2017-10-07T04:22:31.712Z,0
2017-10-07T04:23:34.135Z,0
2017-10-07T04:24:36.582Z,0
2017-10-07T04:25:38.995Z,0
2017-10-07T04:26:41.433Z,0
2017-10-07T04:27:43.855Z,0
2017-10-07T04:28:46.292Z,0
2017-10-07T04:29:49.409Z,0
2017-10-07T04:30:51.849Z,0
2017-10-07T04:31:54.276Z,0
2017-10-07T04:32:56.710Z,0
2017-10-07T04:33:59.142Z,0
2017-10-07T04:35:01.577Z,0
2017-10-07T04:36:03.999Z,0
2017-10-07T04:37:06.775Z,0
2017-10-07T04:38:09.204Z,0
2017-10-07T04:39:11.978Z,0
2017-10-07T04:40:14.409Z,0
2017-10-07T04:41:16.845Z,0
2017-10-07T04:42:19.270Z,0
2017-10-07T04:43:21.695Z,0
2017-10-07T04:44:24.121Z,0
2017-10-07T04:45:26.543Z,0
2017-10-07T04:46:28.971Z,0
2017-10-07T04:47:31.746Z,0
2017-10-07T04:48:34.178Z,0
2017-10-07T04:49:36.613Z,0
2017-10-07T04:50:39.027Z,0
2017-10-07T04:51:41.828Z,0
2017-10-07T04:52:44.272Z,0
2017-10-07T04:53:47.045Z,0
2017-10-07T04:54:49.466Z,0
2017-10-07T04:55:51.895Z,0
2017-10-07T04:56:54.317Z,0
2017-10-07T04:57:56.746Z,0
2017-10-07T04:58:59.177Z,0
2017-10-07T05:00:01.927Z,0
2017-10-07T05:01:04.358Z,0
2017-10-07T05:02:06.791Z,0
2017-10-07T05:03:09.218Z,0
2017-10-07T05:04:11.646Z,0
2017-10-07T05:05:14.069Z,0
2017-10-07T05:06:16.653Z,0
2017-10-07T05:07:19.062Z,0
2017-10-07T05:08:21.494Z,0
2017-10-07T05:09:23.923Z,0
2017-10-07T05:10:26.352Z,0
2017-10-07T05:11:28.786Z,0
2017-10-07T05:12:31.210Z,0
2017-10-07T05:13:33.639Z,0
2017-10-07T05:14:36.069Z,0
2017-10-07T05:15:38.494Z,0
2017-10-07T05:16:40.911Z,0
2017-10-07T05:17:43.341Z,0
2017-10-07T05:18:46.094Z,0
2017-10-07T05:19:48.523Z,0
2017-10-07T05:20:50.950Z,0
2017-10-07T05:21:53.378Z,0
2017-10-07T05:22:55.801Z,0
2017-10-07T05:23:58.240Z,0
2017-10-07T05:25:00.660Z,0
2017-10-07T05:26:03.103Z,0
2017-10-07T05:27:05.521Z,1
2017-10-07T05:28:08.308Z,1
2017-10-07T05:29:10.732Z,1
2017-10-07T05:30:13.166Z,1
2017-10-07T05:31:15.592Z,2
2017-10-07T05:32:18.015Z,2
2017-10-07T05:33:20.457Z,3
2017-10-07T05:34:22.878Z,2
2017-10-07T05:35:25.311Z,3
2017-10-07T05:36:27.741Z,3
2017-10-07T05:37:30.175Z,3
2017-10-07T05:38:32.601Z,3
2017-10-07T05:39:35.036Z,4
2017-10-07T05:40:37.459Z,4
2017-10-07T05:41:39.889Z,4
2017-10-07T05:42:42.318Z,4
2017-10-07T05:43:45.093Z,4
2017-10-07T05:44:47.514Z,4
2017-10-07T05:45:49.940Z,4
2017-10-07T05:46:52.356Z,4
2017-10-07T05:47:54.781Z,3
2017-10-07T05:48:57.210Z,4
2017-10-07T05:49:59.633Z,4
2017-10-07T05:51:02.064Z,5
2017-10-07T05:52:04.495Z,5
2017-10-07T05:53:07.285Z,5
2017-10-07T05:54:09.719Z,4
2017-10-07T05:55:12.149Z,4
2017-10-07T05:56:14.573Z,4
2017-10-07T05:57:17.006Z,4
2017-10-07T05:58:19.771Z,4
2017-10-07T05:59:22.192Z,6
2017-10-07T06:00:24.615Z,6
2017-10-07T06:01:27.043Z,7
2017-10-07T06:02:29.468Z,6
2017-10-07T06:03:31.889Z,6
2017-10-07T06:04:34.673Z,5
2017-10-07T06:05:37.440Z,5
2017-10-07T06:06:39.858Z,4
2017-10-07T06:07:42.292Z,5
2017-10-07T06:08:45.068Z,6
2017-10-07T06:09:47.497Z,7
2017-10-07T06:10:49.931Z,6
2017-10-07T06:11:52.350Z,5
2017-10-07T06:12:55.127Z,5
2017-10-07T06:13:57.564Z,6
2017-10-07T06:14:59.983Z,7
2017-10-07T06:16:02.421Z,8
2017-10-07T06:17:05.186Z,8
2017-10-07T06:18:07.606Z,8
2017-10-07T06:19:10.039Z,8
2017-10-07T06:20:12.467Z,7
2017-10-07T06:21:14.895Z,6
2017-10-07T06:22:17.563Z,6
2017-10-07T06:23:20.028Z,6
2017-10-07T06:24:22.456Z,5
2017-10-07T06:25:24.896Z,5
2017-10-07T06:26:27.320Z,4
2017-10-07T06:27:29.746Z,4
2017-10-07T06:28:32.171Z,5
2017-10-07T06:29:34.611Z,5
2017-10-07T06:30:37.045Z,6
2017-10-07T06:31:39.477Z,7
2017-10-07T06:32:41.903Z,7
2017-10-07T06:33:44.334Z,8
2017-10-07T06:34:47.132Z,8
2017-10-07T06:35:49.563Z,7
2017-10-07T06:36:51.989Z,6
2017-10-07T06:37:54.422Z,5
2017-10-07T06:38:56.845Z,6
2017-10-07T06:39:59.289Z,6
2017-10-07T06:41:01.713Z,8
2017-10-07T06:42:04.150Z,8
2017-10-07T06:43:06.575Z,7
2017-10-07T06:44:09.011Z,6
2017-10-07T06:45:11.435Z,9
2017-10-07T06:46:13.879Z,8
2017-10-07T06:47:16.303Z,11
2017-10-07T06:48:18.736Z,12
2017-10-07T06:49:21.172Z,10
2017-10-07T06:50:23.605Z,15
2017-10-07T06:51:26.399Z,15
2017-10-07T06:52:28.821Z,15
2017-10-07T06:53:31.252Z,15
2017-10-07T06:54:33.717Z,16
2017-10-07T06:55:36.789Z,16
2017-10-07T06:56:39.220Z,17
2017-10-07T06:57:41.638Z,17
2017-10-07T06:58:44.079Z,21
2017-10-07T06:59:46.502Z,18
2017-10-07T07:00:49.614Z,22
2017-10-07T07:01:52.051Z,24
2017-10-07T07:02:54.486Z,25
2017-10-07T07:03:56.905Z,24
2017-10-07T07:04:59.345Z,19
2017-10-07T07:06:02.118Z,14
2017-10-07T07:07:04.551Z,12
2017-10-07T07:08:06.975Z,13
2017-10-07T07:09:09.409Z,15
2017-10-07T07:10:11.828Z,13
2017-10-07T07:11:14.280Z,14
2017-10-07T07:12:16.718Z,17
2017-10-07T07:13:19.134Z,19
2017-10-07T07:14:21.570Z,19
2017-10-07T07:15:23.995Z,21
2017-10-07T07:16:26.430Z,24
2017-10-07T07:17:28.857Z,24
2017-10-07T07:18:31.294Z,29
2017-10-07T07:19:33.726Z,33
2017-10-07T07:20:36.162Z,38
2017-10-07T07:21:38.589Z,42
2017-10-07T07:22:41.008Z,45
2017-10-07T07:23:43.790Z,46
2017-10-07T07:24:46.211Z,44
2017-10-07T07:25:48.643Z,40
2017-10-07T07:26:51.059Z,34
2017-10-07T07:27:53.827Z,24
2017-10-07T07:28:56.259Z,21
2017-10-07T07:29:58.693Z,27
2017-10-07T07:31:01.118Z,25
2017-10-07T07:32:03.543Z,23
2017-10-07T07:33:05.972Z,21
2017-10-07T07:34:08.403Z,24
2017-10-07T07:35:10.815Z,30
2017-10-07T07:36:13.253Z,32
2017-10-07T07:37:15.688Z,28
2017-10-07T07:38:18.114Z,29
2017-10-07T07:39:20.549Z,30
2017-10-07T07:40:22.980Z,29
2017-10-07T07:41:25.411Z,30
2017-10-07T07:42:27.850Z,29
2017-10-07T07:43:30.279Z,33
2017-10-07T07:44:32.702Z,33
2017-10-07T07:45:35.134Z,33
2017-10-07T07:46:37.552Z,38
2017-10-07T07:47:39.989Z,42
2017-10-07T07:48:42.431Z,41
2017-10-07T07:49:44.856Z,42
2017-10-07T07:50:47.285Z,48
2017-10-07T07:51:49.710Z,48
2017-10-07T07:52:52.135Z,48
2017-10-07T07:53:54.576Z,47
2017-10-07T07:54:57.006Z,37
2017-10-07T07:55:59.770Z,30
2017-10-07T07:57:02.208Z,34
2017-10-07T07:58:04.646Z,31
2017-10-07T07:59:07.070Z,31
2017-10-07T08:00:09.497Z,30
2017-10-07T08:01:11.931Z,28
2017-10-07T08:02:14.693Z,28
2017-10-07T08:03:17.114Z,27
2017-10-07T08:04:19.899Z,33
2017-10-07T08:05:22.334Z,36
2017-10-07T08:06:25.315Z,33
2017-10-07T08:07:28.093Z,35
2017-10-07T08:08:30.517Z,36
2017-10-07T08:09:32.949Z,41
2017-10-07T08:10:35.392Z,42
2017-10-07T08:11:37.814Z,49
2017-10-07T08:12:40.239Z,52
2017-10-07T08:13:42.667Z,47
2017-10-07T08:14:45.098Z,40
2017-10-07T08:15:47.520Z,40
2017-10-07T08:16:49.954Z,40
2017-10-07T08:17:52.380Z,39
2017-10-07T08:18:54.808Z,40
2017-10-07T08:19:57.242Z,40
2017-10-07T08:20:59.670Z,43
2017-10-07T08:22:02.099Z,48
2017-10-07T08:23:04.532Z,53
2017-10-07T08:24:06.961Z,52
2017-10-07T08:25:09.390Z,58
2017-10-07T08:26:11.820Z,55
2017-10-07T08:27:14.249Z,52
2017-10-07T08:28:17.015Z,55
2017-10-07T08:29:19.444Z,43
2017-10-07T08:30:21.869Z,42
2017-10-07T08:31:24.300Z,35
2017-10-07T08:32:26.736Z,40
2017-10-07T08:33:29.161Z,31
2017-10-07T08:34:31.594Z,37
2017-10-07T08:35:34.032Z,36
2017-10-07T08:36:36.786Z,38
2017-10-07T08:37:39.221Z,38
2017-10-07T08:38:41.984Z,43
2017-10-07T08:39:44.409Z,43
2017-10-07T08:40:46.836Z,39
2017-10-07T08:41:49.265Z,39
2017-10-07T08:42:51.686Z,39
2017-10-07T08:43:54.802Z,36
2017-10-07T08:44:57.222Z,37
2017-10-07T08:45:59.651Z,36
2017-10-07T08:47:02.078Z,37
2017-10-07T08:48:04.501Z,36
2017-10-07T08:49:06.933Z,36
2017-10-07T08:50:09.363Z,39
2017-10-07T08:51:11.789Z,36
2017-10-07T08:52:14.228Z,38
2017-10-07T08:53:16.644Z,34
2017-10-07T08:54:19.079Z,31
2017-10-07T08:55:21.505Z,32
2017-10-07T08:56:24.281Z,33
2017-10-07T08:57:26.701Z,26
2017-10-07T08:58:29.128Z,33
2017-10-07T08:59:31.552Z,33
2017-10-07T09:00:33.979Z,35
2017-10-07T09:01:36.404Z,36
2017-10-07T09:02:38.849Z,37
2017-10-07T09:03:41.270Z,39
2017-10-07T09:04:43.699Z,41
2017-10-07T09:05:46.122Z,42
2017-10-07T09:06:48.895Z,48
2017-10-07T09:07:51.320Z,48
2017-10-07T09:08:53.759Z,49
2017-10-07T09:09:56.521Z,41
2017-10-07T09:10:58.950Z,43
2017-10-07T09:12:52.711Z,42
2017-10-07T09:13:55.139Z,44
2017-10-07T09:14:57.571Z,42
2017-10-07T09:15:59.988Z,40
2017-10-07T09:17:02.417Z,40
2017-10-07T09:18:04.855Z,43
2017-10-07T09:19:07.276Z,44
2017-10-07T09:20:09.706Z,46
2017-10-07T09:21:12.135Z,46
2017-10-07T09:22:14.567Z,45
2017-10-07T09:23:16.996Z,43
2017-10-07T09:24:19.430Z,40
2017-10-07T09:25:21.845Z,36
2017-10-07T09:26:24.281Z,35
2017-10-07T09:27:26.721Z,34
2017-10-07T09:28:29.143Z,36
2017-10-07T09:29:31.581Z,36
2017-10-07T09:30:34.009Z,36
2017-10-07T09:31:36.440Z,36
2017-10-07T09:32:39.090Z,35
2017-10-07T09:33:41.514Z,38
2017-10-07T09:34:43.947Z,40
2017-10-07T09:35:46.436Z,44
2017-10-07T09:36:49.184Z,47
2017-10-07T09:37:51.625Z,49
2017-10-07T09:38:54.049Z,50
2017-10-07T09:39:56.481Z,51
2017-10-07T09:40:58.910Z,51
2017-10-07T09:42:01.340Z,52
2017-10-07T09:43:04.109Z,52
2017-10-07T09:44:06.542Z,52
2017-10-07T09:45:08.964Z,52
2017-10-07T09:46:11.397Z,51
2017-10-07T09:47:13.832Z,50
2017-10-07T09:48:16.256Z,50
2017-10-07T09:49:18.696Z,52
2017-10-07T09:50:21.127Z,51
2017-10-07T09:51:23.547Z,50
2017-10-07T09:52:25.986Z,49
2017-10-07T09:53:28.411Z,49
2017-10-07T09:54:30.835Z,51
2017-10-07T09:55:33.264Z,54
2017-10-07T09:56:35.691Z,56
2017-10-07T09:57:38.118Z,56
2017-10-07T09:58:40.563Z,54
2017-10-07T09:59:43.321Z,54
2017-10-07T10:00:45.731Z,58
2017-10-07T10:01:48.172Z,61
2017-10-07T10:02:50.596Z,62
2017-10-07T10:03:53.029Z,61
2017-10-07T10:04:55.476Z,61
2017-10-07T10:05:57.880Z,62
2017-10-07T10:07:00.314Z,63
2017-10-07T10:08:02.752Z,62
2017-10-07T10:09:05.176Z,64
2017-10-07T10:10:07.609Z,73
2017-10-07T10:11:10.039Z,84
2017-10-07T10:12:12.468Z,89
2017-10-07T10:13:15.229Z,84
2017-10-07T10:14:17.664Z,77
2017-10-07T10:15:20.429Z,75
2017-10-07T10:16:22.860Z,72
2017-10-07T10:17:25.280Z,67
2017-10-07T10:18:27.712Z,61
2017-10-07T10:19:30.482Z,55
2017-10-07T10:20:32.912Z,54
2017-10-07T10:21:35.341Z,56
2017-10-07T10:22:37.772Z,61
2017-10-07T10:23:40.197Z,63
2017-10-07T10:24:42.629Z,59
2017-10-07T10:25:45.056Z,55
2017-10-07T10:26:47.849Z,51
2017-10-07T10:27:50.277Z,44
2017-10-07T10:28:52.705Z,40
2017-10-07T10:29:55.131Z,39
2017-10-07T10:30:57.562Z,35
2017-10-07T10:31:59.993Z,34
2017-10-07T10:33:02.422Z,30
2017-10-07T10:34:04.843Z,30
2017-10-07T10:35:07.280Z,29
2017-10-07T10:36:09.714Z,35
2017-10-07T10:37:12.145Z,26
2017-10-07T10:38:14.579Z,20
2017-10-07T10:39:17.357Z,31
2017-10-07T10:40:19.781Z,30
2017-10-07T10:41:22.215Z,32
2017-10-07T10:42:24.641Z,41
2017-10-07T10:43:27.065Z,39
2017-10-07T10:44:29.490Z,27
2017-10-07T10:45:32.264Z,26
2017-10-07T10:46:34.692Z,24
2017-10-07T10:47:37.122Z,26
2017-10-07T10:48:39.536Z,28
2017-10-07T10:49:41.978Z,31
2017-10-07T10:50:44.412Z,32
2017-10-07T10:51:46.838Z,38
2017-10-07T10:52:49.273Z,42
2017-10-07T10:53:51.701Z,49
2017-10-07T10:54:54.125Z,55
2017-10-07T10:55:56.572Z,53
2017-10-07T10:56:58.995Z,54
2017-10-07T10:58:01.761Z,52
2017-10-07T10:59:04.186Z,44
2017-10-07T11:00:06.627Z,53
2017-10-07T11:01:09.049Z,47
2017-10-07T11:02:11.471Z,48
2017-10-07T11:03:13.902Z,44
2017-10-07T11:04:16.324Z,38
2017-10-07T11:05:18.760Z,40
2017-10-07T11:06:21.201Z,45
2017-10-07T11:07:23.957Z,40
2017-10-07T11:08:26.394Z,37
2017-10-07T11:09:28.832Z,35
2017-10-07T11:10:31.272Z,31
2017-10-07T11:11:33.681Z,29
2017-10-07T11:12:36.100Z,32
2017-10-07T11:13:38.520Z,28
2017-10-07T11:14:40.967Z,23
2017-10-07T11:15:43.391Z,21
2017-10-07T11:16:45.813Z,15
2017-10-07T11:17:48.246Z,16
2017-10-07T11:18:51.011Z,18
2017-10-07T11:19:53.440Z,23
2017-10-07T11:20:55.874Z,26
2017-10-07T11:21:58.294Z,19
2017-10-07T11:23:00.721Z,25
2017-10-07T11:24:03.162Z,32
2017-10-07T11:25:05.591Z,42
2017-10-07T11:26:08.357Z,48
2017-10-07T11:27:10.784Z,56
2017-10-07T11:28:13.219Z,53
2017-10-07T11:29:15.646Z,52
2017-10-07T11:30:18.077Z,50
2017-10-07T11:31:20.848Z,43
2017-10-07T11:32:23.279Z,47
2017-10-07T11:33:25.695Z,44
2017-10-07T11:34:28.126Z,31
2017-10-07T11:35:30.562Z,38
2017-10-07T11:36:32.987Z,24
2017-10-07T11:37:35.786Z,32
2017-10-07T11:38:38.898Z,30
2017-10-07T11:39:41.324Z,23
2017-10-07T11:40:43.768Z,26
2017-10-07T11:41:46.194Z,33
2017-10-07T11:42:48.611Z,26
2017-10-07T11:43:51.045Z,28
2017-10-07T11:44:53.466Z,26
2017-10-07T11:45:55.889Z,32
2017-10-07T11:46:58.323Z,27
2017-10-07T11:48:00.732Z,30
2017-10-07T11:49:03.163Z,34
2017-10-07T11:50:05.594Z,31
2017-10-07T11:51:08.018Z,34
2017-10-07T11:52:10.457Z,36
2017-10-07T11:53:12.881Z,38
2017-10-07T11:54:15.313Z,40
2017-10-07T11:55:17.750Z,42
2017-10-07T11:56:20.175Z,37
2017-10-07T11:57:22.592Z,39
2017-10-07T11:58:25.017Z,40
2017-10-07T11:59:27.451Z,43
2017-10-07T12:00:29.878Z,46
2017-10-07T12:01:32.314Z,44
2017-10-07T12:02:34.743Z,44
2017-10-07T12:03:37.177Z,45
2017-10-07T12:04:39.596Z,40
2017-10-07T12:05:42.028Z,39
2017-10-07T12:06:44.449Z,35
2017-10-07T12:07:46.877Z,34
2017-10-07T12:08:49.298Z,39
2017-10-07T12:09:51.731Z,39
2017-10-07T12:10:54.155Z,33
2017-10-07T12:11:56.582Z,38
2017-10-07T12:12:59.353Z,39
2017-10-07T12:14:01.786Z,36
2017-10-07T12:15:04.211Z,34
2017-10-07T12:16:06.640Z,41
2017-10-07T12:17:09.066Z,29
2017-10-07T12:18:11.501Z,25
2017-10-07T12:19:13.926Z,34
2017-10-07T12:20:16.357Z,24
2017-10-07T12:21:18.785Z,24
2017-10-07T12:22:21.207Z,29
2017-10-07T12:23:23.974Z,27
2017-10-07T12:24:26.403Z,18
2017-10-07T12:25:29.165Z,19
2017-10-07T12:26:31.592Z,22
2017-10-07T12:27:34.021Z,33
2017-10-07T12:28:36.442Z,36
2017-10-07T12:29:39.225Z,30
2017-10-07T12:30:41.653Z,21
2017-10-07T12:31:44.082Z,23
2017-10-07T12:32:46.501Z,20
2017-10-07T12:33:48.929Z,17
2017-10-07T12:34:51.357Z,25
2017-10-07T12:35:53.790Z,32
2017-10-07T12:36:56.554Z,23
2017-10-07T12:37:58.983Z,21
2017-10-07T12:39:01.757Z,16
2017-10-07T12:40:04.192Z,19
2017-10-07T12:41:06.956Z,22
2017-10-07T12:42:09.383Z,17
2017-10-07T12:43:11.815Z,22
2017-10-07T12:44:14.246Z,26
2017-10-07T12:45:16.680Z,23
2017-10-07T12:46:19.118Z,25
2017-10-07T12:47:21.528Z,20
2017-10-07T12:48:23.959Z,21
2017-10-07T12:49:26.399Z,13
2017-10-07T12:50:28.820Z,18
2017-10-07T12:51:31.243Z,21
2017-10-07T12:52:33.665Z,22
2017-10-07T12:53:36.091Z,22
2017-10-07T12:54:38.530Z,19
2017-10-07T12:55:40.957Z,18
2017-10-07T12:56:43.379Z,20
2017-10-07T12:57:45.812Z,19
2017-10-07T12:58:48.616Z,17
2017-10-07T12:59:51.391Z,17
2017-10-07T13:00:53.814Z,19
2017-10-07T13:01:56.246Z,26
2017-10-07T13:02:58.675Z,24
2017-10-07T13:04:01.092Z,19
2017-10-07T13:05:03.523Z,22
2017-10-07T13:06:05.955Z,28
2017-10-07T13:07:08.376Z,24
2017-10-07T13:08:10.815Z,19
2017-10-07T13:09:13.239Z,22
2017-10-07T13:10:15.670Z,21
2017-10-07T13:11:18.114Z,23
2017-10-07T13:12:20.538Z,20
2017-10-07T13:13:23.305Z,20
2017-10-07T13:14:25.737Z,20
2017-10-07T13:15:28.166Z,19
2017-10-07T13:16:30.932Z,22
2017-10-07T13:17:33.366Z,19
2017-10-07T13:18:35.791Z,21
2017-10-07T13:19:38.219Z,22
2017-10-07T13:20:40.653Z,21
2017-10-07T13:21:43.068Z,23
2017-10-07T13:22:45.504Z,23
2017-10-07T13:23:47.939Z,25
2017-10-07T13:24:50.767Z,22
2017-10-07T13:25:53.195Z,19
2017-10-07T13:26:55.981Z,18
2017-10-07T13:27:58.399Z,22
2017-10-07T13:29:00.839Z,20
2017-10-07T13:30:03.289Z,22
2017-10-07T13:31:05.728Z,20
2017-10-07T13:32:08.152Z,20
2017-10-07T13:33:10.587Z,16
2017-10-07T13:34:13.011Z,20
2017-10-07T13:35:15.815Z,19
2017-10-07T13:36:18.256Z,16
2017-10-07T13:37:20.679Z,25
2017-10-07T13:38:23.126Z,23
2017-10-07T13:39:25.544Z,20
2017-10-07T13:40:27.971Z,25
2017-10-07T13:41:30.399Z,20
2017-10-07T13:42:33.173Z,23
2017-10-07T13:43:35.596Z,19
2017-10-07T13:44:38.030Z,21
2017-10-07T13:45:40.460Z,14
2017-10-07T13:46:42.882Z,19
2017-10-07T13:47:45.321Z,20
2017-10-07T13:48:47.741Z,19
2017-10-07T13:49:50.518Z,14
2017-10-07T13:50:52.946Z,17
2017-10-07T13:51:55.376Z,17
2017-10-07T13:52:57.809Z,18
2017-10-07T13:54:00.236Z,16
2017-10-07T13:55:02.664Z,17
2017-10-07T13:56:05.096Z,12
2017-10-07T13:57:07.525Z,17
2017-10-07T13:58:09.954Z,14
2017-10-07T13:59:12.367Z,17
2017-10-07T14:00:14.803Z,17
2017-10-07T14:01:17.915Z,15
2017-10-07T14:02:20.345Z,20
2017-10-07T14:03:22.775Z,24
2017-10-07T14:04:25.202Z,20
2017-10-07T14:05:27.630Z,22
2017-10-07T14:06:30.056Z,17
2017-10-07T14:07:32.488Z,18
2017-10-07T14:08:35.250Z,16
2017-10-07T14:09:37.679Z,15
2017-10-07T14:10:40.124Z,16
2017-10-07T14:11:42.543Z,16
2017-10-07T14:12:44.981Z,21
2017-10-07T14:13:47.400Z,18
2017-10-07T14:14:49.831Z,19
2017-10-07T14:15:52.255Z,16
2017-10-07T14:16:54.681Z,17
2017-10-07T14:17:57.468Z,18
2017-10-07T14:18:59.919Z,17
2017-10-07T14:20:02.338Z,15
2017-10-07T14:21:04.770Z,18
2017-10-07T14:22:07.204Z,15
2017-10-07T14:23:09.629Z,16
2017-10-07T14:24:12.072Z,14
2017-10-07T14:25:14.846Z,14
2017-10-07T14:26:17.271Z,14
2017-10-07T14:27:20.047Z,13
2017-10-07T14:28:22.474Z,16
2017-10-07T14:29:24.903Z,16
2017-10-07T14:30:28.030Z,14
2017-10-07T14:31:30.822Z,14
2017-10-07T14:32:33.240Z,13
2017-10-07T14:33:35.671Z,14
2017-10-07T14:34:38.445Z,15
2017-10-07T14:35:40.867Z,15
2017-10-07T14:36:43.292Z,12
2017-10-07T14:37:45.716Z,15
2017-10-07T14:38:48.139Z,13
2017-10-07T14:39:50.566Z,14
2017-10-07T14:40:53.329Z,12
2017-10-07T14:41:56.094Z,12
2017-10-07T14:42:58.520Z,10
2017-10-07T14:44:00.943Z,11
2017-10-07T14:45:03.368Z,10
2017-10-07T14:46:05.806Z,10
2017-10-07T14:47:08.230Z,9
2017-10-07T14:48:10.658Z,11
2017-10-07T14:49:13.093Z,11
2017-10-07T14:50:15.521Z,10
2017-10-07T14:51:17.959Z,10
2017-10-07T14:52:20.385Z,9
2017-10-07T14:53:22.793Z,7
2017-10-07T14:54:25.228Z,10
2017-10-07T14:55:27.652Z,9
2017-10-07T14:56:30.082Z,9
2017-10-07T14:57:32.513Z,8
2017-10-07T14:58:34.943Z,8
2017-10-07T14:59:37.374Z,8
2017-10-07T15:00:39.788Z,9
2017-10-07T15:01:42.219Z,7
2017-10-07T15:02:44.643Z,8
2017-10-07T15:03:47.064Z,7
2017-10-07T15:04:49.496Z,7
2017-10-07T15:05:51.919Z,8
2017-10-07T15:06:54.341Z,9